| time (UTC) | temp F | wind direction | speed MPH | gust MPH | rain 1hr in | rain 24hr in | rain mn in | humidity % | barometer mb |
| 20260510230508 | 80 | 67 | 7.0 | 7.0 | 0.00 | 0.00 | 0.00 | 81 | 1017.5 |
| 20260510230005 | 80 | 133 | 10.0 | 10.0 | 0.00 | 0.00 | 0.00 | 80 | 1017.5 |
| 20260510225502 | 80 | 35 | 2.0 | 4.0 | 0.00 | 0.00 | 0.00 | 80 | 1017.3 |
| 20260510224957 | 80 | 73 | 4.0 | 6.0 | 0.00 | 0.00 | 0.00 | 80 | 1017.4 |
| 20260510224454 | 81 | 109 | 5.0 | 10.0 | 0.00 | 0.00 | 0.00 | 79 | 1017.5 |
| 20260510223950 | 81 | 41 | 4.0 | 5.0 | 0.00 | 0.00 | 0.00 | 79 | 1017.4 |
| 20260510223448 | 81 | 50 | 2.0 | 8.0 | 0.00 | 0.00 | 0.00 | 79 | 1017.3 |
| 20260510222944 | 81 | 63 | 3.0 | 6.0 | 0.00 | 0.00 | 0.00 | 79 | 1017.3 |
| 20260510222442 | 81 | 57 | 1.0 | 4.0 | 0.00 | 0.00 | 0.00 | 79 | 1017.3 |
| 20260510221938 | 81 | 54 | 5.0 | 8.0 | 0.00 | 0.00 | 0.00 | 79 | 1017.3 |
| 20260510221434 | 81 | 64 | 4.0 | 5.0 | 0.00 | 0.00 | 0.00 | 79 | 1017.4 |
| 20260510220931 | 81 | 61 | 7.0 | 10.0 | 0.00 | 0.00 | 0.00 | 78 | 1017.1 |
| 20260510220426 | 82 | 53 | 7.0 | 9.0 | 0.00 | 0.00 | 0.00 | 78 | 1017.3 |
| 20260510215923 | 82 | 95 | 4.0 | 5.0 | 0.00 | 0.00 | 0.00 | 78 | 1017.4 |
| 20260510215421 | 82 | 73 | 6.0 | 6.0 | 0.00 | 0.00 | 0.00 | 78 | 1017.3 |
| 20260510214919 | 82 | 54 | 7.0 | 9.0 | 0.00 | 0.00 | 0.00 | 77 | 1017.3 |
| 20260510214415 | 82 | 28 | 2.0 | 4.0 | 0.00 | 0.00 | 0.00 | 77 | 1017.3 |
| 20260510213912 | 82 | 57 | 2.0 | 7.0 | 0.00 | 0.00 | 0.00 | 76 | 1017.5 |
| 20260510213408 | 82 | 74 | 4.0 | 11.0 | 0.00 | 0.00 | 0.00 | 75 | 1017.3 |
| 20260510212905 | 83 | 24 | 4.0 | 6.0 | 0.00 | 0.00 | 0.00 | 74 | 1017.2 |
| 20260510212402 | 84 | 58 | 3.0 | 9.0 | 0.00 | 0.00 | 0.00 | 71 | 1017.1 |
| 20260510211859 | 85 | 282 | 2.0 | 4.0 | 0.00 | 0.00 | 0.00 | 68 | 1017.3 |
| 20260510211355 | 87 | 255 | 4.0 | 4.0 | 0.00 | 0.00 | 0.00 | 62 | 1017.2 |
| 20260510210845 | 88 | 37 | 2.0 | 2.0 | 0.00 | 0.00 | 0.00 | 63 | 1017.1 |
| 20260510210340 | 88 | 261 | 2.0 | 4.0 | 0.00 | 0.00 | 0.00 | 63 | 1017.0 |
| 20260510205839 | 87 | 256 | 9.0 | 9.0 | 0.00 | 0.00 | 0.00 | 64 | 1016.9 |
| 20260510205335 | 87 | 273 | 4.0 | 6.0 | 0.00 | 0.00 | 0.00 | 64 | 1016.9 |
| 20260510204831 | 87 | 278 | 2.0 | 7.0 | 0.00 | 0.00 | 0.00 | 66 | 1016.8 |
| 20260510204328 | 87 | 277 | 3.0 | 4.0 | 0.00 | 0.00 | 0.00 | 67 | 1016.9 |
| 20260510203824 | 87 | 269 | 2.0 | 4.0 | 0.00 | 0.00 | 0.00 | 67 | 1017.0 |
| 20260510203322 | 87 | 275 | 7.0 | 8.0 | 0.00 | 0.00 | 0.00 | 65 | 1016.9 |
| 20260510202822 | 88 | 248 | 1.0 | 7.0 | 0.00 | 0.00 | 0.00 | 64 | 1017.0 |
| 20260510202318 | 88 | 296 | 4.0 | 7.0 | 0.00 | 0.00 | 0.00 | 63 | 1017.0 |
| 20260510201815 | 89 | 275 | 3.0 | 11.0 | 0.00 | 0.00 | 0.00 | 62 | 1016.9 |
| 20260510201312 | 90 | 268 | 5.0 | 5.0 | 0.00 | 0.00 | 0.00 | 59 | 1016.6 |
| 20260510200809 | 91 | 276 | 2.0 | 4.0 | 0.00 | 0.00 | 0.00 | 57 | 1016.5 |
| 20260510200306 | 92 | 292 | 1.0 | 3.0 | 0.00 | 0.00 | 0.00 | 57 | 1016.4 |
| 20260510195802 | 92 | 278 | 2.0 | 3.0 | 0.00 | 0.00 | 0.00 | 56 | 1016.5 |
| 20260510195258 | 92 | 287 | 1.0 | 4.0 | 0.00 | 0.00 | 0.00 | 57 | 1016.4 |
| 20260510194753 | 92 | 306 | 2.0 | 3.0 | 0.00 | 0.00 | 0.00 | 57 | 1016.2 |
| 20260510194250 | 92 | 314 | 0.0 | 4.0 | 0.00 | 0.00 | 0.00 | 57 | 1016.3 |
| 20260510193746 | 92 | 324 | 2.0 | 4.0 | 0.00 | 0.00 | 0.00 | 57 | 1016.4 |
| 20260510193240 | 92 | 303 | 2.0 | 2.0 | 0.00 | 0.00 | 0.00 | 56 | 1016.3 |
| 20260510192736 | 93 | 273 | 2.0 | 5.0 | 0.00 | 0.00 | 0.00 | 55 | 1016.6 |
| 20260510192232 | 94 | 309 | 2.0 | 5.0 | 0.00 | 0.00 | 0.00 | 56 | 1016.6 |
| 20260510191728 | 93 | 286 | 2.0 | 5.0 | 0.00 | 0.00 | 0.00 | 57 | 1016.4 |
| 20260510191224 | 91 | 290 | 0.0 | 3.0 | 0.00 | 0.00 | 0.00 | 59 | 1016.7 |
| 20260510190722 | 90 | 60 | 0.0 | 5.0 | 0.00 | 0.00 | 0.00 | 59 | 1016.8 |
| 20260510190219 | 91 | 63 | 3.0 | 4.0 | 0.00 | 0.00 | 0.00 | 57 | 1016.6 |
| 20260510185716 | 93 | 218 | 0.0 | 3.0 | 0.00 | 0.00 | 0.00 | 56 | 1016.7 |
| 20260510185214 | 93 | 271 | 2.0 | 4.0 | 0.00 | 0.00 | 0.00 | 56 | 1017.0 |
| 20260510184710 | 93 | 280 | 1.0 | 4.0 | 0.00 | 0.00 | 0.00 | 55 | 1017.2 |
| 20260510184207 | 93 | 42 | 0.0 | 2.0 | 0.00 | 0.00 | 0.00 | 56 | 1016.9 |
| 20260510183702 | 94 | 275 | 3.0 | 3.0 | 0.00 | 0.00 | 0.00 | 56 | 1017.1 |
| 20260510183157 | 94 | 280 | 2.0 | 3.0 | 0.00 | 0.00 | 0.00 | 57 | 1017.4 |
| 20260510182654 | 92 | 302 | 3.0 | 3.0 | 0.00 | 0.00 | 0.00 | 60 | 1017.4 |
| 20260510182149 | 92 | 92 | 0.0 | 3.0 | 0.00 | 0.00 | 0.00 | 60 | 1017.1 |
| 20260510181647 | 91 | 356 | 1.0 | 4.0 | 0.00 | 0.00 | 0.00 | 61 | 1017.3 |
| 20260510181143 | 91 | 110 | 4.0 | 4.0 | 0.00 | 0.00 | 0.00 | 60 | 1017.4 |
| 20260510180639 | 90 | 299 | 3.0 | 3.0 | 0.00 | 0.00 | 0.00 | 60 | 1017.3 |
| 20260510180137 | 90 | 108 | 1.0 | 2.0 | 0.00 | 0.00 | 0.00 | 61 | 1017.5 |
| 20260510175633 | 90 | 315 | 2.0 | 4.0 | 0.00 | 0.00 | 0.00 | 61 | 1017.7 |
| 20260510175128 | 90 | 293 | 3.0 | 4.0 | 0.00 | 0.00 | 0.00 | 60 | 1017.6 |
| 20260510174626 | 91 | 37 | 0.0 | 3.0 | 0.00 | 0.00 | 0.00 | 59 | 1017.6 |
| 20260510174124 | 91 | 233 | 1.0 | 6.0 | 0.00 | 0.00 | 0.00 | 59 | 1017.6 |
| 20260510173619 | 91 | 274 | 2.0 | 6.0 | 0.00 | 0.00 | 0.00 | 60 | 1017.9 |
| 20260510173116 | 91 | 296 | 4.0 | 4.0 | 0.00 | 0.00 | 0.00 | 60 | 1018.0 |
| 20260510172611 | 91 | 276 | 2.0 | 4.0 | 0.00 | 0.00 | 0.00 | 61 | 1017.9 |
| 20260510172108 | 91 | 264 | 0.0 | 4.0 | 0.00 | 0.00 | 0.00 | 61 | 1018.0 |
| 20260510171604 | 91 | 289 | 1.0 | 2.0 | 0.00 | 0.00 | 0.00 | 61 | 1018.1 |
| 20260510171102 | 91 | 186 | 1.0 | 5.0 | 0.00 | 0.00 | 0.00 | 62 | 1018.1 |
| 20260510170558 | 92 | 317 | 8.0 | 9.0 | 0.00 | 0.00 | 0.00 | 63 | 1017.9 |
| 20260510170055 | 90 | 170 | 2.0 | 3.0 | 0.00 | 0.00 | 0.00 | 64 | 1018.0 |
| 20260510165551 | 90 | 127 | 4.0 | 6.0 | 0.00 | 0.00 | 0.00 | 64 | 1018.2 |
| 20260510165047 | 91 | 274 | 4.0 | 5.0 | 0.00 | 0.00 | 0.00 | 66 | 1018.2 |
| 20260510164545 | 90 | 234 | 2.0 | 3.0 | 0.00 | 0.00 | 0.00 | 66 | 1018.5 |
| 20260510164040 | 90 | 326 | 2.0 | 2.0 | 0.00 | 0.00 | 0.00 | 67 | 1018.4 |
| 20260510163536 | 89 | 192 | 2.0 | 7.0 | 0.00 | 0.00 | 0.00 | 68 | 1018.5 |
| 20260510163032 | 89 | 269 | 0.0 | 5.0 | 0.00 | 0.00 | 0.00 | 69 | 1018.5 |
| 20260510162528 | 87 | 92 | 3.0 | 4.0 | 0.00 | 0.00 | 0.00 | 69 | 1018.7 |
| 20260510162025 | 89 | 105 | 0.0 | 6.0 | 0.00 | 0.00 | 0.00 | 67 | 1018.5 |
| 20260510161520 | 89 | 184 | 2.0 | 4.0 | 0.00 | 0.00 | 0.00 | 68 | 1018.6 |
| 20260510161017 | 90 | 280 | 3.0 | 5.0 | 0.00 | 0.00 | 0.00 | 68 | 1018.7 |
| 20260510160509 | 88 | 284 | 2.0 | 3.0 | 0.00 | 0.00 | 0.00 | 68 | 1018.9 |
| 20260510160008 | 89 | 279 | 3.0 | 5.0 | 0.00 | 0.00 | 0.00 | 70 | 1018.9 |
| 20260510155504 | 89 | 277 | 4.0 | 4.0 | 0.00 | 0.00 | 0.00 | 70 | 1018.7 |
| 20260510155000 | 88 | 284 | 1.0 | 3.0 | 0.00 | 0.00 | 0.00 | 70 | 1018.7 |
| 20260510154451 | 88 | 279 | 1.0 | 3.0 | 0.00 | 0.00 | 0.00 | 70 | 1018.9 |
| 20260510153950 | 89 | 291 | 3.0 | 3.0 | 0.00 | 0.00 | 0.00 | 71 | 1019.0 |
| 20260510153447 | 88 | 180 | 0.0 | 4.0 | 0.00 | 0.00 | 0.00 | 72 | 1018.8 |
| 20260510152944 | 87 | 139 | 2.0 | 4.0 | 0.00 | 0.00 | 0.00 | 73 | 1018.8 |
| 20260510152441 | 87 | 281 | 1.0 | 4.0 | 0.00 | 0.00 | 0.00 | 74 | 1018.8 |
| 20260510151937 | 86 | 281 | 1.0 | 5.0 | 0.00 | 0.00 | 0.00 | 74 | 1018.6 |
| 20260510151434 | 87 | 295 | 2.0 | 6.0 | 0.00 | 0.00 | 0.00 | 74 | 1018.7 |
| 20260510150930 | 87 | 282 | 4.0 | 5.0 | 0.00 | 0.00 | 0.00 | 74 | 1018.6 |
| 20260510150426 | 87 | 308 | 2.0 | 4.0 | 0.00 | 0.00 | 0.00 | 75 | 1018.8 |
| 20260510145922 | 87 | 301 | 3.0 | 4.0 | 0.00 | 0.00 | 0.00 | 76 | 1018.8 |
| 20260510145419 | 87 | 288 | 4.0 | 4.0 | 0.00 | 0.00 | 0.00 | 78 | 1018.5 |
| 20260510144916 | 86 | 274 | 5.0 | 5.0 | 0.00 | 0.00 | 0.00 | 78 | 1018.4 |
| 20260510144413 | 85 | 290 | 1.0 | 7.0 | 0.00 | 0.00 | 0.00 | 80 | 1018.5 |
| 20260510143907 | 85 | 273 | 2.0 | 4.0 | 0.00 | 0.00 | 0.00 | 81 | 1018.3 |
| 20260510143403 | 85 | 170 | 0.0 | 2.0 | 0.00 | 0.00 | 0.00 | 83 | 1018.5 |
| 20260510142901 | 84 | 263 | 2.0 | 3.0 | 0.00 | 0.00 | 0.00 | 85 | 1018.5 |
| 20260510142357 | 85 | 176 | 0.0 | 3.0 | 0.00 | 0.00 | 0.00 | 87 | 1018.4 |
| 20260510141853 | 84 | 290 | 0.0 | 3.0 | 0.00 | 0.00 | 0.00 | 88 | 1018.7 |
| 20260510141351 | 83 | 149 | 2.0 | 3.0 | 0.00 | 0.00 | 0.00 | 90 | 1018.6 |
| 20260510140848 | 83 | 206 | 1.0 | 2.0 | 0.00 | 0.00 | 0.00 | 92 | 1018.4 |
| 20260510140343 | 82 | 184 | 0.0 | 3.0 | 0.00 | 0.00 | 0.00 | 93 | 1018.6 |
| 20260510135837 | 82 | 309 | 0.0 | 1.0 | 0.00 | 0.00 | 0.00 | 94 | 1018.1 |
| 20260510135333 | 81 | 124 | 0.0 | 3.0 | 0.00 | 0.00 | 0.00 | 95 | 1018.2 |
| 20260510134831 | 81 | 240 | 0.0 | 2.0 | 0.00 | 0.00 | 0.00 | 97 | 1018.2 |
| 20260510134328 | 81 | 257 | 1.0 | 2.0 | 0.00 | 0.00 | 0.00 | 97 | 1018.2 |
| 20260510133824 | 80 | 224 | 0.0 | 0.0 | 0.00 | 0.00 | 0.00 | 98 | 1018.3 |
| 20260510133320 | 80 | 124 | 0.0 | 2.0 | 0.00 | 0.00 | 0.00 | 99 | 1018.0 |
| 20260510132816 | 79 | 180 | 1.0 | 2.0 | 0.00 | 0.00 | 0.00 | 99 | 1018.1 |
| 20260510132314 | 79 | 175 | 1.0 | 2.0 | 0.00 | 0.00 | 0.00 | 99 | 1017.8 |
| 20260510131811 | 79 | 143 | 0.0 | 2.0 | 0.00 | 0.00 | 0.00 | 99 | 1017.9 |
| 20260510131308 | 79 | 130 | 0.0 | 0.0 | 0.00 | 0.00 | 0.00 | 99 | 1018.0 |
| 20260510130805 | 78 | 206 | 0.0 | 3.0 | 0.00 | 0.00 | 0.00 | 99 | 1018.0 |
| 20260510130302 | 78 | 89 | 0.0 | 0.0 | 0.00 | 0.00 | 0.00 | 99 | 1018.0 |
| 20260510125758 | 78 | 339 | 0.0 | 1.0 | 0.00 | 0.00 | 0.00 | 99 | 1017.8 |
| 20260510125254 | 78 | 126 | 1.0 | 2.0 | 0.00 | 0.00 | 0.00 | 99 | 1018.0 |
| 20260510124751 | 78 | 154 | 0.0 | 3.0 | 0.00 | 0.00 | 0.00 | 99 | 1017.6 |
| 20260510124248 | 78 | 184 | 1.0 | 5.0 | 0.00 | 0.00 | 0.00 | 99 | 1017.7 |
| 20260510123744 | 78 | 154 | 0.0 | 3.0 | 0.00 | 0.00 | 0.00 | 99 | 1017.7 |
| 20260510123240 | 78 | 217 | 0.0 | 3.0 | 0.00 | 0.00 | 0.00 | 99 | 1017.7 |
| 20260510122736 | 77 | 99 | 0.0 | 2.0 | 0.00 | 0.00 | 0.00 | 99 | 1017.7 |
| 20260510122233 | 77 | 213 | 1.0 | 3.0 | 0.00 | 0.00 | 0.00 | 99 | 1017.6 |
| 20260510121729 | 76 | 125 | 1.0 | 2.0 | 0.00 | 0.00 | 0.00 | 99 | 1017.5 |
| 20260510121227 | 75 | 148 | 1.0 | 2.0 | 0.00 | 0.00 | 0.00 | 99 | 1017.3 |
| 20260510120724 | 75 | 102 | 1.0 | 2.0 | 0.00 | 0.00 | 0.00 | 99 | 1017.2 |
| 20260510120220 | 74 | 145 | 0.0 | 2.0 | 0.00 | 0.00 | 0.00 | 99 | 1017.5 |
| 20260510115716 | 74 | 143 | 0.0 | 2.0 | 0.00 | 0.00 | 0.00 | 99 | 1017.4 |
| 20260510115214 | 74 | 152 | 0.0 | 2.0 | 0.00 | 0.00 | 0.00 | 99 | 1017.6 |
| 20260510114709 | 74 | 152 | 0.0 | 2.0 | 0.00 | 0.00 | 0.00 | 99 | 1017.0 |
| 20260510114207 | 74 | 209 | 0.0 | 2.0 | 0.00 | 0.00 | 0.00 | 99 | 1017.1 |
| 20260510113701 | 74 | 175 | 0.0 | 2.0 | 0.00 | 0.00 | 0.00 | 99 | 1017.0 |
| 20260510113158 | 73 | 157 | 0.0 | 3.0 | 0.00 | 0.00 | 0.00 | 99 | 1016.9 |
| 20260510112654 | 73 | 117 | 0.0 | 1.0 | 0.00 | 0.00 | 0.00 | 99 | 1017.1 |
| 20260510112151 | 73 | 129 | 0.0 | 2.0 | 0.00 | 0.00 | 0.00 | 99 | 1016.7 |
| 20260510111642 | 73 | 129 | 0.0 | 2.0 | 0.02 | 0.00 | 0.00 | 99 | 1016.6 |
| 20260510111138 | 73 | 103 | 0.0 | 1.0 | 0.02 | 0.00 | 0.00 | 99 | 1016.7 |
| 20260510110634 | 72 | 125 | 0.0 | 2.0 | 0.00 | 0.00 | 0.00 | 99 | 1016.7 |
| 20260510110131 | 72 | 112 | 0.0 | 1.0 | 0.00 | 0.00 | 0.00 | 99 | 1016.6 |
| 20260510105626 | 72 | 160 | 0.0 | 2.0 | 0.00 | 0.00 | 0.00 | 99 | 1016.6 |
| 20260510105121 | 71 | 122 | 0.0 | 2.0 | 0.00 | 0.00 | 0.00 | 99 | 1016.4 |
| 20260510104618 | 71 | 148 | 0.0 | 2.0 | 0.00 | 0.00 | 0.00 | 99 | 1016.4 |
| 20260510104115 | 71 | 37 | 0.0 | 1.0 | 0.00 | 0.00 | 0.00 | 99 | 1016.2 |
| 20260510103612 | 71 | 161 | 0.0 | 0.0 | 0.00 | 0.00 | 0.00 | 99 | 1015.9 |
| 20260510103107 | 71 | 119 | 1.0 | 1.0 | 0.00 | 0.00 | 0.00 | 99 | 1015.8 |
| 20260510102603 | 71 | 97 | 0.0 | 2.0 | 0.00 | 0.00 | 0.00 | 99 | 1015.8 |
| 20260510102059 | 71 | 102 | 0.0 | 0.0 | 0.00 | 0.00 | 0.00 | 99 | 1015.6 |
| 20260510101557 | 71 | 89 | 0.0 | 1.0 | 0.00 | 0.00 | 0.00 | 99 | 1015.8 |
| 20260510101055 | 71 | 134 | 1.0 | 2.0 | 0.00 | 0.00 | 0.00 | 99 | 1015.9 |
| 20260510100551 | 71 | 79 | 1.0 | 1.0 | 0.00 | 0.00 | 0.00 | 99 | 1015.8 |
| 20260510100049 | 71 | 120 | 1.0 | 2.0 | 0.00 | 0.00 | 0.00 | 99 | 1015.9 |
| 20260510095545 | 71 | 62 | 0.0 | 0.0 | 0.00 | 0.00 | 0.00 | 99 | 1015.8 |
| 20260510095044 | 71 | 62 | 0.0 | 0.0 | 0.00 | 0.00 | 0.00 | 99 | 1015.8 |
| 20260510094544 | 71 | 50 | 0.0 | 0.0 | 0.00 | 0.00 | 0.00 | 99 | 1015.7 |
| 20260510094039 | 71 | 135 | 0.0 | 0.0 | 0.00 | 0.00 | 0.00 | 99 | 1015.5 |
| 20260510093535 | 71 | 73 | 0.0 | 2.0 | 0.00 | 0.00 | 0.00 | 99 | 1015.6 |
| 20260510093032 | 71 | 50 | 0.0 | 0.0 | 0.00 | 0.00 | 0.00 | 99 | 1015.6 |
| 20260510092530 | 71 | 308 | 0.0 | 0.0 | 0.00 | 0.00 | 0.00 | 99 | 1015.8 |
| 20260510092029 | 71 | 50 | 0.0 | 0.0 | 0.00 | 0.00 | 0.00 | 99 | 1015.6 |
| 20260510091526 | 71 | 89 | 0.0 | 1.0 | 0.00 | 0.00 | 0.00 | 99 | 1015.4 |
| 20260510091022 | 71 | 106 | 0.0 | 2.0 | 0.00 | 0.00 | 0.00 | 99 | 1015.3 |
| 20260510090519 | 71 | 97 | 2.0 | 2.0 | 0.00 | 0.00 | 0.00 | 99 | 1015.8 |
| 20260510090015 | 72 | 103 | 2.0 | 2.0 | 0.00 | 0.00 | 0.00 | 99 | 1015.6 |
| 20260510085510 | 72 | 135 | 0.0 | 0.0 | 0.00 | 0.00 | 0.00 | 99 | 1015.5 |
| 20260510085006 | 72 | 135 | 0.0 | 0.0 | 0.00 | 0.00 | 0.00 | 99 | 1015.6 |
| 20260510084503 | 72 | 62 | 0.0 | 0.0 | 0.00 | 0.00 | 0.00 | 99 | 1015.6 |
| 20260510084000 | 72 | 0 | 0.0 | 0.0 | 0.00 | 0.00 | 0.00 | 99 | 1015.5 |
| 20260510083456 | 72 | 0 | 0.0 | 0.0 | 0.00 | 0.00 | 0.00 | 99 | 1015.3 |
| 20260510082951 | 72 | 89 | 0.0 | 0.0 | 0.00 | 0.00 | 0.00 | 99 | 1015.4 |
| 20260510082450 | 72 | 131 | 1.0 | 2.0 | 0.00 | 0.00 | 0.00 | 99 | 1015.4 |
| 20260510081949 | 72 | 142 | 0.0 | 0.0 | 0.00 | 0.00 | 0.00 | 99 | 1015.6 |
| 20260510081445 | 72 | 139 | 0.0 | 1.0 | 0.00 | 0.00 | 0.00 | 99 | 1015.3 |
| 20260510080942 | 72 | 129 | 0.0 | 0.0 | 0.00 | 0.00 | 0.00 | 99 | 1015.5 |
| 20260510080439 | 72 | 129 | 0.0 | 0.0 | 0.00 | 0.00 | 0.00 | 99 | 1015.5 |
| 20260510075937 | 72 | 108 | 2.0 | 2.0 | 0.00 | 0.00 | 0.00 | 99 | 1015.3 |
| 20260510075435 | 73 | 48 | 0.0 | 1.0 | 0.00 | 0.00 | 0.00 | 99 | 1015.6 |
| 20260510074931 | 72 | 89 | 0.0 | 0.0 | 0.00 | 0.00 | 0.00 | 99 | 1015.6 |
| 20260510074429 | 72 | 89 | 0.0 | 0.0 | 0.00 | 0.00 | 0.00 | 99 | 1015.4 |
| 20260510073925 | 73 | 118 | 2.0 | 2.0 | 0.00 | 0.00 | 0.00 | 99 | 1015.5 |
| 20260510073420 | 72 | 76 | 0.0 | 0.0 | 0.00 | 0.00 | 0.00 | 99 | 1015.6 |
| 20260510072917 | 73 | 142 | 0.0 | 0.0 | 0.00 | 0.00 | 0.00 | 99 | 1015.7 |
| 20260510072414 | 73 | 269 | 0.0 | 1.0 | 0.00 | 0.00 | 0.00 | 99 | 1015.7 |
| 20260510071909 | 72 | 124 | 0.0 | 0.0 | 0.00 | 0.00 | 0.00 | 99 | 1015.8 |
| 20260510071406 | 72 | 124 | 0.0 | 0.0 | 0.00 | 0.00 | 0.00 | 99 | 1015.9 |
| 20260510070905 | 72 | 124 | 0.0 | 0.0 | 0.00 | 0.00 | 0.00 | 99 | 1015.7 |
| 20260510070401 | 72 | 124 | 0.0 | 0.0 | 0.00 | 0.00 | 0.00 | 99 | 1015.9 |
| 20260510065856 | 72 | 119 | 1.0 | 1.0 | 0.00 | 0.00 | 0.00 | 99 | 1015.8 |
| 20260510065353 | 72 | 77 | 0.0 | 0.0 | 0.00 | 0.00 | 0.00 | 99 | 1015.8 |
| 20260510064850 | 73 | 89 | 0.0 | 1.0 | 0.00 | 0.00 | 0.00 | 99 | 1015.9 |
| 20260510064348 | 73 | 117 | 0.0 | 0.0 | 0.00 | 0.00 | 0.00 | 99 | 1015.5 |
| 20260510063844 | 72 | 50 | 0.0 | 0.0 | 0.00 | 0.00 | 0.00 | 99 | 1015.8 |
| 20260510063340 | 72 | 50 | 0.0 | 0.0 | 0.00 | 0.00 | 0.00 | 99 | 1015.9 |
| 20260510062837 | 72 | 50 | 0.0 | 0.0 | 0.00 | 0.00 | 0.00 | 99 | 1015.8 |
| 20260510062333 | 72 | 50 | 0.0 | 0.0 | 0.00 | 0.00 | 0.00 | 99 | 1015.8 |
| 20260510061828 | 72 | 50 | 0.0 | 0.0 | 0.00 | 0.00 | 0.00 | 99 | 1016.0 |
| 20260510061325 | 72 | 50 | 0.0 | 0.0 | 0.00 | 0.00 | 0.00 | 99 | 1016.0 |
| 20260510060821 | 72 | 50 | 0.0 | 0.0 | 0.00 | 0.00 | 0.00 | 99 | 1016.0 |
| 20260510060319 | 72 | 50 | 0.0 | 1.0 | 0.00 | 0.00 | 0.00 | 99 | 1016.0 |
| 20260510055815 | 73 | 89 | 2.0 | 2.0 | 0.00 | 0.00 | 0.00 | 99 | 1016.1 |
| 20260510055314 | 73 | 81 | 1.0 | 2.0 | 0.00 | 0.00 | 0.00 | 99 | 1016.1 |
| 20260510054813 | 72 | 50 | 0.0 | 0.0 | 0.00 | 0.00 | 0.00 | 99 | 1016.2 |
| 20260510054309 | 72 | 50 | 0.0 | 0.0 | 0.00 | 0.00 | 0.00 | 99 | 1016.4 |
| 20260510053804 | 73 | 50 | 0.0 | 0.0 | 0.00 | 0.00 | 0.00 | 99 | 1016.1 |
| 20260510053259 | 73 | 89 | 0.0 | 1.0 | 0.00 | 0.00 | 0.00 | 99 | 1016.5 |
| 20260510052756 | 72 | 89 | 1.0 | 2.0 | 0.00 | 0.00 | 0.00 | 99 | 1016.4 |
| 20260510052246 | 72 | 110 | 2.0 | 2.0 | 0.00 | 0.00 | 0.00 | 99 | 1016.8 |
| 20260510051743 | 73 | 68 | 1.0 | 1.0 | 0.00 | 0.00 | 0.00 | 99 | 1016.7 |
| 20260510051239 | 73 | 105 | 1.0 | 2.0 | 0.00 | 0.00 | 0.00 | 99 | 1017.0 |
| 20260510050736 | 73 | 129 | 0.0 | 0.0 | 0.00 | 0.00 | 0.00 | 99 | 1016.9 |
| 20260510050233 | 73 | 127 | 2.0 | 2.0 | 0.00 | 0.00 | 0.00 | 99 | 1017.0 |
| 20260510045730 | 73 | 242 | 0.0 | 0.0 | 0.00 | 0.00 | 0.00 | 99 | 1017.0 |
| 20260510045226 | 73 | 298 | 0.0 | 1.0 | 0.00 | 0.00 | 0.00 | 99 | 1017.1 |
| 20260510044723 | 73 | 89 | 0.0 | 0.0 | 0.00 | 0.00 | 0.00 | 99 | 1017.0 |
| 20260510044221 | 73 | 50 | 0.0 | 1.0 | 0.00 | 0.00 | 0.00 | 99 | 1017.1 |
| 20260510043716 | 73 | 297 | 0.0 | 0.0 | 0.00 | 0.00 | 0.00 | 99 | 1017.0 |
| 20260510043213 | 73 | 297 | 0.0 | 0.0 | 0.00 | 0.00 | 0.00 | 99 | 1017.1 |
| 20260510042710 | 73 | 297 | 0.0 | 0.0 | 0.00 | 0.00 | 0.00 | 99 | 1016.8 |
| 20260510042206 | 73 | 309 | 0.0 | 0.0 | 0.00 | 0.00 | 0.00 | 99 | 1016.9 |
| 20260510041703 | 73 | 309 | 0.0 | 0.0 | 0.00 | 0.00 | 0.00 | 99 | 1016.9 |
| 20260510041201 | 73 | 37 | 0.0 | 0.0 | 0.00 | 0.00 | 0.00 | 99 | 1016.8 |
| 20260510040657 | 73 | 113 | 0.0 | 1.0 | 0.00 | 0.00 | 0.00 | 99 | 1016.9 |
| 20260510040154 | 73 | 164 | 0.0 | 1.0 | 0.00 | 0.00 | 0.00 | 99 | 1017.0 |
| 20260510035650 | 73 | 152 | 0.0 | 2.0 | 0.00 | 0.17 | 0.17 | 99 | 1016.9 |
| 20260510035145 | 73 | 113 | 1.0 | 1.0 | 0.00 | 0.17 | 0.17 | 99 | 1016.8 |
| 20260510034642 | 73 | 114 | 0.0 | 2.0 | 0.00 | 0.17 | 0.17 | 99 | 1016.9 |
| 20260510034139 | 74 | 89 | 1.0 | 2.0 | 0.00 | 0.17 | 0.17 | 99 | 1017.0 |
| 20260510033635 | 73 | 242 | 0.0 | 0.0 | 0.00 | 0.17 | 0.17 | 99 | 1017.0 |
| 20260510033134 | 74 | 269 | 0.0 | 0.0 | 0.00 | 0.17 | 0.17 | 99 | 1016.9 |
| 20260510032630 | 73 | 336 | 0.0 | 0.0 | 0.00 | 0.17 | 0.17 | 99 | 1016.9 |
| 20260510032125 | 74 | 50 | 0.0 | 2.0 | 0.00 | 0.17 | 0.17 | 99 | 1017.1 |
| 20260510031620 | 74 | 25 | 0.0 | 2.0 | 0.00 | 0.17 | 0.17 | 99 | 1016.9 |
| 20260510031117 | 74 | 38 | 0.0 | 0.0 | 0.00 | 0.17 | 0.17 | 98 | 1016.8 |
| 20260510030611 | 74 | 84 | 1.0 | 2.0 | 0.00 | 0.17 | 0.17 | 98 | 1017.0 |
| 20260510030109 | 74 | 74 | 1.0 | 1.0 | 0.00 | 0.17 | 0.17 | 98 | 1016.7 |
| 20260510025606 | 74 | 52 | 2.0 | 2.0 | 0.00 | 0.17 | 0.17 | 98 | 1016.7 |
| 20260510025103 | 74 | 53 | 2.0 | 3.0 | 0.00 | 0.17 | 0.17 | 98 | 1016.8 |
| 20260510024600 | 74 | 93 | 2.0 | 5.0 | 0.00 | 0.17 | 0.17 | 98 | 1016.7 |
| 20260510024056 | 74 | 106 | 3.0 | 4.0 | 0.00 | 0.17 | 0.17 | 98 | 1016.8 |
| 20260510023547 | 75 | 93 | 2.0 | 2.0 | 0.00 | 0.17 | 0.17 | 98 | 1016.9 |
| 20260510023045 | 75 | 58 | 0.0 | 1.0 | 0.00 | 0.17 | 0.17 | 97 | 1017.0 |
| 20260510022544 | 75 | 279 | 0.0 | 1.0 | 0.00 | 0.17 | 0.17 | 97 | 1017.0 |
| 20260510022038 | 75 | 326 | 0.0 | 1.0 | 0.00 | 0.17 | 0.17 | 97 | 1016.8 |
| 20260510021535 | 75 | 283 | 0.0 | 0.0 | 0.00 | 0.17 | 0.17 | 97 | 1017.3 |
| 20260510021032 | 75 | 38 | 1.0 | 2.0 | 0.00 | 0.17 | 0.17 | 97 | 1016.7 |
| 20260510020527 | 75 | 108 | 0.0 | 3.0 | 0.00 | 0.17 | 0.17 | 97 | 1016.8 |
| 20260510020023 | 75 | 67 | 2.0 | 2.0 | 0.00 | 0.17 | 0.17 | 97 | 1016.9 |
| 20260510015518 | 75 | 34 | 2.0 | 3.0 | 0.00 | 0.17 | 0.17 | 97 | 1016.8 |
| 20260510015015 | 75 | 67 | 1.0 | 2.0 | 0.00 | 0.17 | 0.17 | 97 | 1016.8 |
| 20260510014511 | 75 | 55 | 2.0 | 3.0 | 0.00 | 0.17 | 0.17 | 96 | 1016.7 |
| 20260510014009 | 75 | 60 | 1.0 | 3.0 | 0.00 | 0.17 | 0.17 | 96 | 1016.5 |
| 20260510013502 | 75 | 62 | 2.0 | 2.0 | 0.00 | 0.17 | 0.17 | 96 | 1016.4 |
| 20260510012959 | 75 | 63 | 0.0 | 2.0 | 0.00 | 0.17 | 0.17 | 96 | 1016.6 |
| 20260510012453 | 75 | 44 | 1.0 | 2.0 | 0.00 | 0.17 | 0.17 | 96 | 1016.4 |
| 20260510011949 | 75 | 67 | 2.0 | 3.0 | 0.00 | 0.17 | 0.17 | 96 | 1016.3 |
| 20260510011444 | 75 | 52 | 3.0 | 4.0 | 0.00 | 0.17 | 0.17 | 96 | 1016.3 |
| 20260510010940 | 75 | 86 | 1.0 | 4.0 | 0.00 | 0.17 | 0.17 | 96 | 1016.1 |
| 20260510010437 | 76 | 60 | 1.0 | 2.0 | 0.00 | 0.17 | 0.17 | 95 | 1016.1 |
| 20260510005933 | 75 | 64 | 2.0 | 3.0 | 0.00 | 0.17 | 0.17 | 95 | 1016.0 |
| 20260510005424 | 75 | 29 | 0.0 | 2.0 | 0.00 | 0.17 | 0.17 | 95 | 1016.1 |
| 20260510004921 | 75 | 0 | 0.0 | 0.0 | 0.00 | 0.17 | 0.17 | 95 | 1015.8 |
| 20260510004419 | 76 | 339 | 0.0 | 1.0 | 0.00 | 0.17 | 0.17 | 94 | 1015.7 |
| 20260510003917 | 76 | 22 | 0.0 | 0.0 | 0.00 | 0.17 | 0.17 | 94 | 1015.7 |
| 20260510003414 | 76 | 59 | 1.0 | 1.0 | 0.00 | 0.17 | 0.17 | 94 | 1015.4 |
| 20260510002912 | 76 | 50 | 0.0 | 2.0 | 0.00 | 0.17 | 0.17 | 94 | 1015.6 |
| 20260510002410 | 76 | 60 | 2.0 | 4.0 | 0.00 | 0.17 | 0.17 | 93 | 1015.4 |
| 20260510001906 | 76 | 45 | 2.0 | 3.0 | 0.00 | 0.17 | 0.17 | 93 | 1015.5 |
| 20260510001404 | 76 | 210 | 0.0 | 0.0 | 0.00 | 0.17 | 0.17 | 92 | 1015.4 |
| 20260510000901 | 76 | 284 | 0.0 | 2.0 | 0.00 | 0.17 | 0.17 | 92 | 1015.4 |
| 20260510000358 | 77 | 269 | 0.0 | 2.0 | 0.00 | 0.17 | 0.17 | 91 | 1015.4 |
| 20260509235854 | 77 | 212 | 0.0 | 2.0 | 0.00 | 0.17 | 0.17 | 91 | 1015.2 |
| 20260509235351 | 77 | 56 | 4.0 | 6.0 | 0.00 | 0.17 | 0.17 | 90 | 1015.1 |
| 20260509234847 | 77 | 79 | 5.0 | 6.0 | 0.00 | 0.17 | 0.17 | 90 | 1015.3 |
| 20260509234344 | 77 | 62 | 3.0 | 3.0 | 0.00 | 0.17 | 0.17 | 89 | 1015.3 |
| 20260509233842 | 77 | 148 | 1.0 | 2.0 | 0.00 | 0.17 | 0.17 | 89 | 1015.3 |
| 20260509233340 | 78 | 105 | 4.0 | 5.0 | 0.00 | 0.17 | 0.17 | 89 | 1015.2 |
| 20260509232835 | 78 | 85 | 2.0 | 4.0 | 0.00 | 0.17 | 0.17 | 88 | 1015.0 |
| 20260509232333 | 78 | 338 | 0.0 | 7.0 | 0.00 | 0.17 | 0.17 | 88 | 1014.8 |
| 20260509231829 | 78 | 51 | 4.0 | 6.0 | 0.00 | 0.17 | 0.17 | 88 | 1014.9 |
| 20260509231326 | 78 | 61 | 3.0 | 5.0 | 0.00 | 0.17 | 0.17 | 88 | 1014.7 |
| 20260509230824 | 78 | 20 | 2.0 | 4.0 | 0.00 | 0.17 | 0.17 | 88 | 1014.6 |